Aviation Digital Data Service (ADDS)

Output produced by METARs form (2103 UTC 18 April 2021)
found at http://aviationweather.gov/metar/data/
 
METAR text: KCVH 182055Z AUTO 00000KT 10SM CLR 29/M01 A3008 RMK A01
Conditions at: KCVH (HOLLISTER MUNI , CA, US) observed 2055 UTC 18 April 2021
Temperature: 29.0°C (84°F)
Dewpoint: -1.0°C (30°F) [RH = 14%]
Pressure (altimeter): 30.08 inches Hg (1018.7 mb)
Winds: calm
Visibility: 10 or more miles (16+ km)
Ceiling: at least 12,000 feet AGL
Clouds: sky clear below 12,000 feet AGL
Weather: automated observation with no human augmentation;
there may or may not be significant weather present at this time